sensor_id;sensor_type;location;lat;lon;timestamp;pressure;altitude;pressure_sealevel;temperature;humidity
38227;BME280;24026;49.446;8.576;2023-08-07T00:01:01;100297.38;;;20.22;52.28
38227;BME280;24026;49.446;8.576;2023-08-07T00:03:22;100302.78;;;20.22;52.50
38227;BME280;24026;49.446;8.576;2023-08-07T00:05:45;100300.09;;;20.22;52.39
38227;BME280;24026;49.446;8.576;2023-08-07T00:08:05;100300.88;;;20.22;52.43
38227;BME280;24026;49.446;8.576;2023-08-07T00:10:26;100303.88;;;20.21;52.51
38227;BME280;24026;49.446;8.576;2023-08-07T00:12:47;100305.47;;;20.22;52.45
38227;BME280;24026;49.446;8.576;2023-08-07T00:15:07;100306.56;;;20.21;52.40
38227;BME280;24026;49.446;8.576;2023-08-07T00:17:28;100299.56;;;20.20;52.52
38227;BME280;24026;49.446;8.576;2023-08-07T00:19:49;100294.19;;;20.20;52.37
38227;BME280;24026;49.446;8.576;2023-08-07T00:22:09;100300.69;;;20.18;52.45
38227;BME280;24026;49.446;8.576;2023-08-07T00:24:30;100299.09;;;20.17;52.27
38227;BME280;24026;49.446;8.576;2023-08-07T00:26:51;100294.50;;;20.18;52.41
38227;BME280;24026;49.446;8.576;2023-08-07T00:29:11;100293.69;;;20.17;52.47
38227;BME280;24026;49.446;8.576;2023-08-07T00:31:31;100296.41;;;20.17;52.54
38227;BME280;24026;49.446;8.576;2023-08-07T00:33:52;100295.59;;;20.17;52.58
38227;BME280;24026;49.446;8.576;2023-08-07T00:36:14;100292.13;;;20.16;52.34
38227;BME280;24026;49.446;8.576;2023-08-07T00:38:34;100292.91;;;20.17;52.52
38227;BME280;24026;49.446;8.576;2023-08-07T00:40:55;100296.69;;;20.16;52.31
38227;BME280;24026;49.446;8.576;2023-08-07T00:43:15;100290.22;;;20.17;52.38
38227;BME280;24026;49.446;8.576;2023-08-07T00:45:46;100292.44;;;20.15;52.53
38227;BME280;24026;49.446;8.576;2023-08-07T00:48:07;100295.91;;;20.15;52.51
38227;BME280;24026;49.446;8.576;2023-08-07T00:50:28;100294.00;;;20.16;52.33
38227;BME280;24026;49.446;8.576;2023-08-07T00:52:48;100291.31;;;20.16;52.20
38227;BME280;24026;49.446;8.576;2023-08-07T00:55:09;100295.13;;;20.15;52.54
38227;BME280;24026;49.446;8.576;2023-08-07T00:57:30;100304.00;;;20.15;52.32
38227;BME280;24026;49.446;8.576;2023-08-07T00:59:50;100304.31;;;20.14;51.95
38227;BME280;24026;49.446;8.576;2023-08-07T01:02:12;100305.91;;;20.15;52.21
38227;BME280;24026;49.446;8.576;2023-08-07T01:04:33;100298.91;;;20.14;51.89
38227;BME280;24026;49.446;8.576;2023-08-07T01:06:53;100301.63;;;20.14;52.46
38227;BME280;24026;49.446;8.576;2023-08-07T01:09:14;100301.13;;;20.12;52.03
38227;BME280;24026;49.446;8.576;2023-08-07T01:14:25;100304.13;;;20.10;52.16
38227;BME280;24026;49.446;8.576;2023-08-07T01:16:52;100305.72;;;20.11;52.17
38227;BME280;24026;49.446;8.576;2023-08-07T01:19:23;100302.22;;;20.11;51.77
38227;BME280;24026;49.446;8.576;2023-08-07T01:21:48;100311.13;;;20.11;52.10
38227;BME280;24026;49.446;8.576;2023-08-07T01:24:08;100309.53;;;20.10;52.12
38227;BME280;24026;49.446;8.576;2023-08-07T01:26:29;100305.22;;;20.09;51.79
38227;BME280;24026;49.446;8.576;2023-08-07T01:29:02;100301.75;;;20.09;52.01
38227;BME280;24026;49.446;8.576;2023-08-07T01:31:25;100311.75;;;20.08;51.94
38227;BME280;24026;49.446;8.576;2023-08-07T01:34:06;100313.94;;;20.06;51.89
38227;BME280;24026;49.446;8.576;2023-08-07T01:36:29;100313.63;;;20.08;51.88
38227;BME280;24026;49.446;8.576;2023-08-07T01:38:50;100317.91;;;20.09;51.94
38227;BME280;24026;49.446;8.576;2023-08-07T01:41:13;100318.22;;;20.07;51.76
38227;BME280;24026;49.446;8.576;2023-08-07T01:43:33;100316.31;;;20.08;51.91
38227;BME280;24026;49.446;8.576;2023-08-07T01:45:54;100314.75;;;20.07;51.75
38227;BME280;24026;49.446;8.576;2023-08-07T01:48:14;100312.84;;;20.07;51.49
38227;BME280;24026;49.446;8.576;2023-08-07T01:50:35;100314.75;;;20.07;51.40
38227;BME280;24026;49.446;8.576;2023-08-07T01:52:56;100316.31;;;20.08;51.35
38227;BME280;24026;49.446;8.576;2023-08-07T01:55:18;100310.13;;;20.07;51.38
38227;BME280;24026;49.446;8.576;2023-08-07T01:57:38;100324.72;;;20.06;51.51
38227;BME280;24026;49.446;8.576;2023-08-07T01:59:59;100321.22;;;20.06;51.44
38227;BME280;24026;49.446;8.576;2023-08-07T02:02:19;100323.94;;;20.06;51.34
38227;BME280;24026;49.446;8.576;2023-08-07T02:04:39;100322.34;;;20.05;51.67
38227;BME280;24026;49.446;8.576;2023-08-07T02:07:00;100321.53;;;20.04;51.35
38227;BME280;24026;49.446;8.576;2023-08-07T02:09:20;100331.53;;;20.04;51.52
38227;BME280;24026;49.446;8.576;2023-08-07T02:11:41;100329.63;;;20.04;51.13
38227;BME280;24026;49.446;8.576;2023-08-07T02:14:02;100333.13;;;20.05;51.04
38227;BME280;24026;49.446;8.576;2023-08-07T02:16:23;100331.53;;;20.04;51.17
38227;BME280;24026;49.446;8.576;2023-08-07T02:18:43;100325.34;;;20.03;51.06
38227;BME280;24026;49.446;8.576;2023-08-07T02:21:03;100328.06;;;20.03;51.12
38227;BME280;24026;49.446;8.576;2023-08-07T02:23:24;100323.75;;;20.02;50.98
38227;BME280;24026;49.446;8.576;2023-08-07T02:25:44;100325.66;;;20.02;51.37
38227;BME280;24026;49.446;8.576;2023-08-07T02:28:05;100335.31;;;20.03;50.90
38227;BME280;24026;49.446;8.576;2023-08-07T02:30:26;100341.84;;;20.02;50.87
38227;BME280;24026;49.446;8.576;2023-08-07T02:32:46;100327.53;;;20.01;51.16
38227;BME280;24026;49.446;8.576;2023-08-07T02:35:07;100334.53;;;20.02;50.86
38227;BME280;24026;49.446;8.576;2023-08-07T02:37:28;100342.16;;;20.00;50.98
38227;BME280;24026;49.446;8.576;2023-08-07T02:39:48;100339.44;;;20.00;51.01
38227;BME280;24026;49.446;8.576;2023-08-07T02:42:09;100343.72;;;20.01;51.00
38227;BME280;24026;49.446;8.576;2023-08-07T02:44:29;100324.06;;;20.01;51.11
38227;BME280;24026;49.446;8.576;2023-08-07T02:46:50;100332.16;;;20.01;51.03
38227;BME280;24026;49.446;8.576;2023-08-07T02:49:10;100339.44;;;20.00;50.68
38227;BME280;24026;49.446;8.576;2023-08-07T02:51:32;100342.16;;;20.00;50.65
38227;BME280;24026;49.446;8.576;2023-08-07T02:53:52;100342.94;;;20.01;50.77
38227;BME280;24026;49.446;8.576;2023-08-07T02:56:12;100337.06;;;19.98;50.85
38227;BME280;24026;49.446;8.576;2023-08-07T02:58:33;100336.75;;;20.00;50.50
38227;BME280;24026;49.446;8.576;2023-08-07T03:00:53;100336.25;;;19.98;50.59
38227;BME280;24026;49.446;8.576;2023-08-07T03:03:14;100338.16;;;19.97;50.55
38227;BME280;24026;49.446;8.576;2023-08-07T03:05:34;100336.25;;;19.98;50.65
38227;BME280;24026;49.446;8.576;2023-08-07T03:07:55;100336.25;;;19.98;50.43
38227;BME280;24026;49.446;8.576;2023-08-07T03:10:15;100334.66;;;19.97;50.53
38227;BME280;24026;49.446;8.576;2023-08-07T03:12:36;100345.44;;;19.97;50.25
38227;BME280;24026;49.446;8.576;2023-08-07T03:14:57;100342.75;;;19.97;50.23
38227;BME280;24026;49.446;8.576;2023-08-07T03:17:18;100341.97;;;19.96;50.25
38227;BME280;24026;49.446;8.576;2023-08-07T03:19:41;100341.97;;;19.96;49.95
38227;BME280;24026;49.446;8.576;2023-08-07T03:22:02;100351.16;;;19.95;50.26
38227;BME280;24026;49.446;8.576;2023-08-07T03:24:22;100344.97;;;19.95;49.78
38227;BME280;24026;49.446;8.576;2023-08-07T03:26:43;100342.25;;;19.95;49.83
38227;BME280;24026;49.446;8.576;2023-08-07T03:29:04;100344.16;;;19.94;50.10
38227;BME280;24026;49.446;8.576;2023-08-07T03:31:24;100348.75;;;19.94;49.98
38227;BME280;24026;49.446;8.576;2023-08-07T03:33:45;100351.44;;;19.94;50.23
38227;BME280;24026;49.446;8.576;2023-08-07T03:36:05;100356.84;;;19.94;50.14
38227;BME280;24026;49.446;8.576;2023-08-07T03:38:25;100351.75;;;19.92;49.64
38227;BME280;24026;49.446;8.576;2023-08-07T03:40:46;100349.84;;;19.93;49.98
38227;BME280;24026;49.446;8.576;2023-08-07T03:43:06;100354.44;;;19.92;50.12
38227;BME280;24026;49.446;8.576;2023-08-07T03:45:27;100358.75;;;19.93;50.13
38227;BME280;24026;49.446;8.576;2023-08-07T03:47:47;100365.22;;;19.92;49.67
38227;BME280;24026;49.446;8.576;2023-08-07T03:50:08;100361.75;;;19.92;49.89
38227;BME280;24026;49.446;8.576;2023-08-07T03:52:28;100361.75;;;19.92;49.91
38227;BME280;24026;49.446;8.576;2023-08-07T03:54:49;100359.06;;;19.92;49.77
38227;BME280;24026;49.446;8.576;2023-08-07T03:57:09;100360.97;;;19.91;49.60
38227;BME280;24026;49.446;8.576;2023-08-07T03:59:30;100360.13;;;19.91;49.76
38227;BME280;24026;49.446;8.576;2023-08-07T04:01:51;100358.56;;;19.90;50.10
38227;BME280;24026;49.446;8.576;2023-08-07T04:04:11;100363.13;;;19.89;49.74
38227;BME280;24026;49.446;8.576;2023-08-07T04:06:32;100368.53;;;19.89;49.96
38227;BME280;24026;49.446;8.576;2023-08-07T04:08:52;100355.06;;;19.89;49.83
38227;BME280;24026;49.446;8.576;2023-08-07T04:11:12;100364.25;;;19.88;50.03
38227;BME280;24026;49.446;8.576;2023-08-07T04:13:33;100360.75;;;19.88;49.67
38227;BME280;24026;49.446;8.576;2023-08-07T04:15:54;100361.88;;;19.87;49.71
38227;BME280;24026;49.446;8.576;2023-08-07T04:18:14;100362.97;;;19.86;49.83
38227;BME280;24026;49.446;8.576;2023-08-07T04:20:35;100366.78;;;19.85;49.91
38227;BME280;24026;49.446;8.576;2023-08-07T04:22:55;100361.38;;;19.85;49.66
38227;BME280;24026;49.446;8.576;2023-08-07T04:25:16;100366.78;;;19.85;49.69
38227;BME280;24026;49.446;8.576;2023-08-07T04:27:36;100376.75;;;19.84;50.09
38227;BME280;24026;49.446;8.576;2023-08-07T04:29:56;100374.03;;;19.84;49.90
38227;BME280;24026;49.446;8.576;2023-08-07T04:32:17;100380.56;;;19.83;49.87
38227;BME280;24026;49.446;8.576;2023-08-07T04:34:38;100380.84;;;19.82;50.01
38227;BME280;24026;49.446;8.576;2023-08-07T04:36:58;100388.13;;;19.81;50.14
38227;BME280;24026;49.446;8.576;2023-08-07T04:39:20;100390.81;;;19.81;50.09
38227;BME280;24026;49.446;8.576;2023-08-07T04:41:41;100387.34;;;19.80;50.02
38227;BME280;24026;49.446;8.576;2023-08-07T04:44:01;100391.13;;;19.79;50.05
38227;BME280;24026;49.446;8.576;2023-08-07T04:46:21;100391.13;;;19.79;50.10
38227;BME280;24026;49.446;8.576;2023-08-07T04:48:42;100395.72;;;19.79;49.90
38227;BME280;24026;49.446;8.576;2023-08-07T04:51:02;100402.25;;;19.78;49.87
38227;BME280;24026;49.446;8.576;2023-08-07T04:53:24;100403.03;;;19.78;50.26
38227;BME280;24026;49.446;8.576;2023-08-07T04:55:46;100401.44;;;19.77;50.03
38227;BME280;24026;49.446;8.576;2023-08-07T04:58:07;100409.50;;;19.77;49.96
38227;BME280;24026;49.446;8.576;2023-08-07T05:00:28;100408.72;;;19.77;50.04
38227;BME280;24026;49.446;8.576;2023-08-07T05:02:49;100401.72;;;19.76;50.25
38227;BME280;24026;49.446;8.576;2023-08-07T05:05:09;100402.84;;;19.75;49.96
38227;BME280;24026;49.446;8.576;2023-08-07T05:07:29;100403.63;;;19.75;50.32
38227;BME280;24026;49.446;8.576;2023-08-07T05:09:50;100405.53;;;19.75;50.01
38227;BME280;24026;49.446;8.576;2023-08-07T05:12:12;100405.53;;;19.75;50.43
38227;BME280;24026;49.446;8.576;2023-08-07T05:14:33;100411.72;;;19.75;50.26
38227;BME280;24026;49.446;8.576;2023-08-07T05:16:53;100403.13;;;19.73;50.46
38227;BME280;24026;49.446;8.576;2023-08-07T05:19:13;100416.31;;;19.75;50.08
38227;BME280;24026;49.446;8.576;2023-08-07T05:21:34;100417.38;;;19.74;50.11
38227;BME280;24026;49.446;8.576;2023-08-07T05:23:54;100420.88;;;19.74;50.46
38227;BME280;24026;49.446;8.576;2023-08-07T05:26:16;100417.13;;;19.75;50.24
38227;BME280;24026;49.446;8.576;2023-08-07T05:28:36;100423.28;;;19.76;50.37
38227;BME280;24026;49.446;8.576;2023-08-07T05:30:57;100428.97;;;19.74;50.35
38227;BME280;24026;49.446;8.576;2023-08-07T05:33:18;100428.97;;;19.74;50.49
38227;BME280;24026;49.446;8.576;2023-08-07T05:35:39;100433.56;;;19.74;50.51
38227;BME280;24026;49.446;8.576;2023-08-07T05:37:59;100430.06;;;19.73;50.61
38227;BME280;24026;49.446;8.576;2023-08-07T05:40:19;100435.19;;;19.75;50.16
38227;BME280;24026;49.446;8.576;2023-08-07T05:42:40;100433.56;;;19.74;50.33
38227;BME280;24026;49.446;8.576;2023-08-07T05:45:01;100437.03;;;19.74;50.28
38227;BME280;24026;49.446;8.576;2023-08-07T05:47:22;100434.34;;;19.74;50.21
38227;BME280;24026;49.446;8.576;2023-08-07T05:49:42;100437.91;;;19.75;50.37
38227;BME280;24026;49.446;8.576;2023-08-07T05:52:05;100439.16;;;19.77;50.30
38227;BME280;24026;49.446;8.576;2023-08-07T05:54:26;100441.88;;;19.77;50.17
38227;BME280;24026;49.446;8.576;2023-08-07T05:56:46;100442.69;;;19.78;50.08
38227;BME280;24026;49.446;8.576;2023-08-07T05:59:07;100438.09;;;19.78;50.30
38227;BME280;24026;49.446;8.576;2023-08-07T06:01:27;100445.06;;;19.79;50.30
38227;BME280;24026;49.446;8.576;2023-08-07T06:03:51;100441.28;;;19.80;50.45
38227;BME280;24026;49.446;8.576;2023-08-07T06:06:11;100448.28;;;19.82;49.96
38227;BME280;24026;49.446;8.576;2023-08-07T06:08:32;100449.06;;;19.82;50.07
38227;BME280;24026;49.446;8.576;2023-08-07T06:10:52;100457.94;;;19.83;50.45
38227;BME280;24026;49.446;8.576;2023-08-07T06:13:13;100448.75;;;19.84;50.29
38227;BME280;24026;49.446;8.576;2023-08-07T06:15:33;100458.47;;;19.85;50.05
38227;BME280;24026;49.446;8.576;2023-08-07T06:17:54;100460.81;;;19.86;50.29
38227;BME280;24026;49.446;8.576;2023-08-07T06:20:15;100456.25;;;19.87;49.97
38227;BME280;24026;49.446;8.576;2023-08-07T06:22:36;100454.03;;;19.89;50.17
38227;BME280;24026;49.446;8.576;2023-08-07T06:24:56;100452.97;;;19.90;50.01
38227;BME280;24026;49.446;8.576;2023-08-07T06:27:16;100457.22;;;19.91;49.92
38227;BME280;24026;49.446;8.576;2023-08-07T06:29:37;100460.75;;;19.91;49.81
38227;BME280;24026;49.446;8.576;2023-08-07T06:31:57;100460.41;;;19.93;49.43
38227;BME280;24026;49.446;8.576;2023-08-07T06:34:18;100457.41;;;19.94;49.38
38227;BME280;24026;49.446;8.576;2023-08-07T06:36:38;100470.59;;;19.96;49.50
38227;BME280;24026;49.446;8.576;2023-08-07T06:38:59;100474.13;;;19.96;49.57
38227;BME280;24026;49.446;8.576;2023-08-07T06:41:19;100479.22;;;19.98;49.36
38227;BME280;24026;49.446;8.576;2023-08-07T06:43:40;100479.22;;;19.98;49.33
38227;BME280;24026;49.446;8.576;2023-08-07T06:46:00;100482.41;;;20.00;49.08
38227;BME280;24026;49.446;8.576;2023-08-07T06:48:21;100482.09;;;20.02;49.19
38227;BME280;24026;49.446;8.576;2023-08-07T06:50:41;100481.81;;;20.03;49.11
38227;BME280;24026;49.446;8.576;2023-08-07T06:53:02;100488.78;;;20.04;49.01
38227;BME280;24026;49.446;8.576;2023-08-07T06:55:22;100486.56;;;20.06;48.80
38227;BME280;24026;49.446;8.576;2023-08-07T06:57:43;100492.78;;;20.07;48.78
38227;BME280;24026;49.446;8.576;2023-08-07T07:00:04;100486.25;;;20.08;48.72
38227;BME280;24026;49.446;8.576;2023-08-07T07:02:25;100492.19;;;20.10;48.80
38227;BME280;24026;49.446;8.576;2023-08-07T07:04:45;100496.47;;;20.11;48.54
38227;BME280;24026;49.446;8.576;2023-08-07T07:07:06;100497.28;;;20.11;48.67
38227;BME280;24026;49.446;8.576;2023-08-07T07:09:26;100495.06;;;20.13;48.38
38227;BME280;24026;49.446;8.576;2023-08-07T07:11:48;100500.47;;;20.13;48.75
38227;BME280;24026;49.446;8.576;2023-08-07T07:14:09;100491.25;;;20.14;48.28
38227;BME280;24026;49.446;8.576;2023-08-07T07:16:30;100498.25;;;20.15;48.56
38227;BME280;24026;49.446;8.576;2023-08-07T07:18:50;100508.25;;;20.15;48.23
38227;BME280;24026;49.446;8.576;2023-08-07T07:21:11;100508.75;;;20.17;48.37
38227;BME280;24026;49.446;8.576;2023-08-07T07:23:31;100514.94;;;20.17;48.11
38227;BME280;24026;49.446;8.576;2023-08-07T07:25:52;100514.13;;;20.17;48.15
38227;BME280;24026;49.446;8.576;2023-08-07T07:28:12;100524.94;;;20.17;48.34
38227;BME280;24026;49.446;8.576;2023-08-07T07:30:32;100526.03;;;20.16;48.08
38227;BME280;24026;49.446;8.576;2023-08-07T07:32:53;100523.31;;;20.16;48.04
38227;BME280;24026;49.446;8.576;2023-08-07T07:35:13;100532.53;;;20.15;48.38
38227;BME280;24026;49.446;8.576;2023-08-07T07:37:34;100536.03;;;20.15;48.24
38227;BME280;24026;49.446;8.576;2023-08-07T07:39:54;100543.03;;;20.16;47.86
38227;BME280;24026;49.446;8.576;2023-08-07T07:42:14;100541.13;;;20.17;47.98
38227;BME280;24026;49.446;8.576;2023-08-07T07:44:35;100545.72;;;20.16;47.83
38227;BME280;24026;49.446;8.576;2023-08-07T07:46:59;100541.91;;;20.17;47.86
38227;BME280;24026;49.446;8.576;2023-08-07T07:49:20;100544.59;;;20.17;48.09
38227;BME280;24026;49.446;8.576;2023-08-07T07:51:40;100545.44;;;20.18;47.79
38227;BME280;24026;49.446;8.576;2023-08-07T07:54:01;100552.41;;;20.19;47.94
38227;BME280;24026;49.446;8.576;2023-08-07T07:56:21;100545.09;;;20.20;48.12
38227;BME280;24026;49.446;8.576;2023-08-07T07:58:41;100551.63;;;20.18;48.25
38227;BME280;24026;49.446;8.576;2023-08-07T08:01:02;100553.19;;;20.20;48.01
38227;BME280;24026;49.446;8.576;2023-08-07T08:03:22;100554.81;;;20.21;47.84
38227;BME280;24026;49.446;8.576;2023-08-07T08:05:44;100559.09;;;20.22;47.82
38227;BME280;24026;49.446;8.576;2023-08-07T08:08:05;100561.81;;;20.22;47.79
38227;BME280;24026;49.446;8.576;2023-08-07T08:10:27;100562.59;;;20.22;48.18
38227;BME280;24026;49.446;8.576;2023-08-07T08:12:47;100566.09;;;20.23;48.21
38227;BME280;24026;49.446;8.576;2023-08-07T08:15:08;100566.91;;;20.23;48.26
38227;BME280;24026;49.446;8.576;2023-08-07T08:17:29;100571.19;;;20.24;47.94
38227;BME280;24026;49.446;8.576;2023-08-07T08:19:49;100571.47;;;20.23;48.32
38227;BME280;24026;49.446;8.576;2023-08-07T08:22:09;100575.78;;;20.24;48.31
38227;BME280;24026;49.446;8.576;2023-08-07T08:24:30;100573.09;;;20.24;48.05
38227;BME280;24026;49.446;8.576;2023-08-07T08:26:51;100578.47;;;20.24;48.20
38227;BME280;24026;49.446;8.576;2023-08-07T08:29:14;100575.78;;;20.24;48.21
38227;BME280;24026;49.446;8.576;2023-08-07T08:31:37;100584.69;;;20.24;48.18
38227;BME280;24026;49.446;8.576;2023-08-07T08:34:01;100578.47;;;20.24;48.42
38227;BME280;24026;49.446;8.576;2023-08-07T08:36:21;100583.88;;;20.24;48.40
38227;BME280;24026;49.446;8.576;2023-08-07T08:38:42;100586.88;;;20.22;48.63
38227;BME280;24026;49.446;8.576;2023-08-07T08:41:03;100593.88;;;20.23;48.69
38227;BME280;24026;49.446;8.576;2023-08-07T08:43:27;100583.09;;;20.23;48.65
38227;BME280;24026;49.446;8.576;2023-08-07T08:45:49;100587.66;;;20.23;48.63
38227;BME280;24026;49.446;8.576;2023-08-07T08:48:13;100590.06;;;20.24;48.81
38227;BME280;24026;49.446;8.576;2023-08-07T08:50:39;100598.47;;;20.23;48.51
38227;BME280;24026;49.446;8.576;2023-08-07T08:53:00;100603.84;;;20.23;48.59
38227;BME280;24026;49.446;8.576;2023-08-07T08:55:23;100603.84;;;20.23;48.84
38227;BME280;24026;49.446;8.576;2023-08-07T08:57:43;100605.47;;;20.24;48.39
38227;BME280;24026;49.446;8.576;2023-08-07T09:00:05;100610.88;;;20.24;48.47
38227;BME280;24026;49.446;8.576;2023-08-07T09:02:35;100607.09;;;20.25;48.57
38227;BME280;24026;49.446;8.576;2023-08-07T09:04:56;100609.78;;;20.25;48.71
38227;BME280;24026;49.446;8.576;2023-08-07T09:07:19;100607.56;;;20.27;48.42
38227;BME280;24026;49.446;8.576;2023-08-07T09:09:41;100612.16;;;20.26;48.56
38227;BME280;24026;49.446;8.576;2023-08-07T09:12:02;100609.44;;;20.26;48.65
38227;BME280;24026;49.446;8.576;2023-08-07T09:14:26;100611.84;;;20.28;48.61
38227;BME280;24026;49.446;8.576;2023-08-07T09:16:50;100607.56;;;20.27;48.87
38227;BME280;24026;49.446;8.576;2023-08-07T09:19:11;100609.97;;;20.28;48.79
38227;BME280;24026;49.446;8.576;2023-08-07T09:21:32;100610.75;;;20.29;49.00
38227;BME280;24026;49.446;8.576;2023-08-07T09:23:52;100612.38;;;20.30;48.62
38227;BME280;24026;49.446;8.576;2023-08-07T09:26:13;100610.47;;;20.30;48.92
38227;BME280;24026;49.446;8.576;2023-08-07T09:28:33;100603.97;;;20.31;48.59
38227;BME280;24026;49.446;8.576;2023-08-07T09:30:54;100609.03;;;20.33;48.92
38227;BME280;24026;49.446;8.576;2023-08-07T09:33:14;100612.56;;;20.33;48.92
38227;BME280;24026;49.446;8.576;2023-08-07T09:35:34;100609.56;;;20.35;49.17
38227;BME280;24026;49.446;8.576;2023-08-07T09:37:56;100616.53;;;20.36;49.14
38227;BME280;24026;49.446;8.576;2023-08-07T09:40:19;100620.84;;;20.37;49.17
38227;BME280;24026;49.446;8.576;2023-08-07T09:42:41;100630.56;;;20.38;49.01
38227;BME280;24026;49.446;8.576;2023-08-07T09:45:08;100629.44;;;20.39;49.14
38227;BME280;24026;49.446;8.576;2023-08-07T09:47:38;100632.13;;;20.39;49.02
38227;BME280;24026;49.446;8.576;2023-08-07T09:50:01;100640.72;;;20.41;49.17
38227;BME280;24026;49.446;8.576;2023-08-07T09:52:27;100629.94;;;20.41;49.06
38227;BME280;24026;49.446;8.576;2023-08-07T09:54:50;100639.63;;;20.42;49.35
38227;BME280;24026;49.446;8.576;2023-08-07T09:57:10;100639.63;;;20.42;49.30
38227;BME280;24026;49.446;8.576;2023-08-07T09:59:34;100645.81;;;20.43;49.18
38227;BME280;24026;49.446;8.576;2023-08-07T10:01:55;100637.44;;;20.44;49.34
38227;BME280;24026;49.446;8.576;2023-08-07T10:04:15;100638.25;;;20.45;49.30
38227;BME280;24026;49.446;8.576;2023-08-07T10:06:36;100653.31;;;20.46;49.33
38227;BME280;24026;49.446;8.576;2023-08-07T10:08:57;100650.63;;;20.46;49.47
38227;BME280;24026;49.446;8.576;2023-08-07T10:11:19;100652.22;;;20.47;49.18
38227;BME280;24026;49.446;8.576;2023-08-07T10:13:41;100656.50;;;20.48;49.49
38227;BME280;24026;49.446;8.576;2023-08-07T10:16:02;100663.53;;;20.49;49.50
38227;BME280;24026;49.446;8.576;2023-08-07T10:18:23;100657.03;;;20.50;49.59
38227;BME280;24026;49.446;8.576;2023-08-07T10:20:43;100658.63;;;20.51;49.44
38227;BME280;24026;49.446;8.576;2023-08-07T10:23:08;100664.84;;;20.51;49.46
38227;BME280;24026;49.446;8.576;2023-08-07T10:25:29;100664.50;;;20.53;49.75
38227;BME280;24026;49.446;8.576;2023-08-07T10:27:52;100668.03;;;20.53;49.53
38227;BME280;24026;49.446;8.576;2023-08-07T10:30:14;100662.63;;;20.53;49.88
38227;BME280;24026;49.446;8.576;2023-08-07T10:32:38;100670.44;;;20.55;49.43
38227;BME280;24026;49.446;8.576;2023-08-07T10:35:03;100675.81;;;20.55;49.45
38227;BME280;24026;49.446;8.576;2023-08-07T10:37:44;100672.59;;;20.53;49.80
38227;BME280;24026;49.446;8.576;2023-08-07T10:40:06;100668.53;;;20.55;50.06
38227;BME280;24026;49.446;8.576;2023-08-07T10:42:56;100674.22;;;20.54;49.92
38227;BME280;24026;49.446;8.576;2023-08-07T10:45:18;100677.41;;;20.56;50.12
38227;BME280;24026;49.446;8.576;2023-08-07T10:47:41;100678.22;;;20.57;49.97
38227;BME280;24026;49.446;8.576;2023-08-07T10:50:01;100676.03;;;20.59;50.23
38227;BME280;24026;49.446;8.576;2023-08-07T10:52:24;100676.81;;;20.59;50.01
38227;BME280;24026;49.446;8.576;2023-08-07T10:54:49;100681.13;;;20.60;50.38
38227;BME280;24026;49.446;8.576;2023-08-07T10:57:13;100683.00;;;20.60;50.19
38227;BME280;24026;49.446;8.576;2023-08-07T10:59:37;100678.13;;;20.62;50.14
38227;BME280;24026;49.446;8.576;2023-08-07T11:01:58;100678.91;;;20.62;50.01
38227;BME280;24026;49.446;8.576;2023-08-07T11:04:19;100678.91;;;20.62;50.00
38227;BME280;24026;49.446;8.576;2023-08-07T11:06:41;100679.72;;;20.63;50.43
38227;BME280;24026;49.446;8.576;2023-08-07T11:09:04;100678.63;;;20.64;50.44
38227;BME280;24026;49.446;8.576;2023-08-07T11:11:26;100692.94;;;20.64;50.20
38227;BME280;24026;49.446;8.576;2023-08-07T11:13:47;100694.53;;;20.65;50.56
38227;BME280;24026;49.446;8.576;2023-08-07T11:16:07;100693.41;;;20.66;50.73
38227;BME280;24026;49.446;8.576;2023-08-07T11:18:28;100699.63;;;20.67;50.39
38227;BME280;24026;49.446;8.576;2023-08-07T11:20:50;100694.25;;;20.67;50.58
38227;BME280;24026;49.446;8.576;2023-08-07T11:23:11;100691.25;;;20.68;50.52
38227;BME280;24026;49.446;8.576;2023-08-07T11:25:32;100688.53;;;20.68;50.43
38227;BME280;24026;49.446;8.576;2023-08-07T11:27:53;100690.13;;;20.69;50.77
38227;BME280;24026;49.446;8.576;2023-08-07T11:30:14;100692.81;;;20.69;50.87
38227;BME280;24026;49.446;8.576;2023-08-07T11:32:34;100682.84;;;20.70;50.54
38227;BME280;24026;49.446;8.576;2023-08-07T11:34:55;100683.63;;;20.70;51.04
38227;BME280;24026;49.446;8.576;2023-08-07T11:37:16;100679.03;;;20.71;50.83
38227;BME280;24026;49.446;8.576;2023-08-07T11:39:44;100679.03;;;20.71;50.90
38227;BME280;24026;49.446;8.576;2023-08-07T11:42:05;100672.53;;;20.72;51.14
38227;BME280;24026;49.446;8.576;2023-08-07T11:44:26;100669.53;;;20.73;51.05
38227;BME280;24026;49.446;8.576;2023-08-07T11:46:46;100666.00;;;20.73;50.93
38227;BME280;24026;49.446;8.576;2023-08-07T11:49:07;100665.72;;;20.75;51.04
38227;BME280;24026;49.446;8.576;2023-08-07T11:51:28;100661.91;;;20.76;51.34
38227;BME280;24026;49.446;8.576;2023-08-07T11:53:49;100661.63;;;20.77;50.86
38227;BME280;24026;49.446;8.576;2023-08-07T11:56:11;100656.22;;;20.77;51.29
38227;BME280;24026;49.446;8.576;2023-08-07T11:58:37;100658.63;;;20.79;51.05
38227;BME280;24026;49.446;8.576;2023-08-07T12:01:16;100651.59;;;20.78;51.44
38227;BME280;24026;49.446;8.576;2023-08-07T12:03:49;100654.00;;;20.79;51.40
38227;BME280;24026;49.446;8.576;2023-08-07T12:06:11;100655.63;;;20.80;51.44
38227;BME280;24026;49.446;8.576;2023-08-07T12:08:40;100655.31;;;20.82;51.20
38227;BME280;24026;49.446;8.576;2023-08-07T12:11:02;100658.00;;;20.82;51.41
38227;BME280;24026;49.446;8.576;2023-08-07T12:13:25;100657.72;;;20.83;51.50
38227;BME280;24026;49.446;8.576;2023-08-07T12:15:57;100650.41;;;20.84;51.28
38227;BME280;24026;49.446;8.576;2023-08-07T12:18:19;100657.41;;;20.85;51.31
38227;BME280;24026;49.446;8.576;2023-08-07T12:20:45;100652.81;;;20.85;51.58
38227;BME280;24026;49.446;8.576;2023-08-07T12:23:15;100650.59;;;20.87;51.37